sensor_id;sensor_type;location;lat;lon;timestamp;temperature;humidity
7360;DHT22;3720;48.274;7.796;2024-03-07T00:00:00;7.60;99.90
7360;DHT22;3720;48.274;7.796;2024-03-07T00:02:32;7.60;99.90
7360;DHT22;3720;48.274;7.796;2024-03-07T00:05:04;7.60;99.90
7360;DHT22;3720;48.274;7.796;2024-03-07T00:07:37;7.70;99.90
7360;DHT22;3720;48.274;7.796;2024-03-07T00:10:09;7.60;99.90
7360;DHT22;3720;48.274;7.796;2024-03-07T00:12:41;7.70;99.90
7360;DHT22;3720;48.274;7.796;2024-03-07T00:15:15;7.60;99.90
7360;DHT22;3720;48.274;7.796;2024-03-07T00:17:48;7.70;99.90
7360;DHT22;3720;48.274;7.796;2024-03-07T00:20:20;7.60;99.90
7360;DHT22;3720;48.274;7.796;2024-03-07T00:22:52;7.60;99.90
7360;DHT22;3720;48.274;7.796;2024-03-07T00:25:24;7.60;99.90
7360;DHT22;3720;48.274;7.796;2024-03-07T00:27:56;7.60;99.90
7360;DHT22;3720;48.274;7.796;2024-03-07T00:30:34;7.60;99.90
7360;DHT22;3720;48.274;7.796;2024-03-07T00:33:06;7.60;99.90
7360;DHT22;3720;48.274;7.796;2024-03-07T00:35:38;7.60;99.90
7360;DHT22;3720;48.274;7.796;2024-03-07T00:38:10;7.60;99.90
7360;DHT22;3720;48.274;7.796;2024-03-07T00:40:42;7.60;99.90
7360;DHT22;3720;48.274;7.796;2024-03-07T00:43:14;7.60;99.90
7360;DHT22;3720;48.274;7.796;2024-03-07T00:45:48;7.60;99.90
7360;DHT22;3720;48.274;7.796;2024-03-07T00:48:20;7.60;99.90
7360;DHT22;3720;48.274;7.796;2024-03-07T00:50:55;7.60;99.90
7360;DHT22;3720;48.274;7.796;2024-03-07T00:53:27;7.60;99.90
7360;DHT22;3720;48.274;7.796;2024-03-07T00:55:59;7.60;99.90
7360;DHT22;3720;48.274;7.796;2024-03-07T00:58:30;7.60;99.90
7360;DHT22;3720;48.274;7.796;2024-03-07T01:01:04;7.60;99.90
7360;DHT22;3720;48.274;7.796;2024-03-07T01:03:36;7.60;99.90
7360;DHT22;3720;48.274;7.796;2024-03-07T01:06:08;7.50;99.90
7360;DHT22;3720;48.274;7.796;2024-03-07T01:08:41;7.50;99.90
7360;DHT22;3720;48.274;7.796;2024-03-07T01:11:13;7.50;99.90
7360;DHT22;3720;48.274;7.796;2024-03-07T01:13:44;7.50;99.90
7360;DHT22;3720;48.274;7.796;2024-03-07T01:16:18;7.50;99.90
7360;DHT22;3720;48.274;7.796;2024-03-07T01:18:49;7.50;99.90
7360;DHT22;3720;48.274;7.796;2024-03-07T01:21:21;7.50;99.90
7360;DHT22;3720;48.274;7.796;2024-03-07T01:23:54;7.50;99.90
7360;DHT22;3720;48.274;7.796;2024-03-07T01:26:27;7.50;99.90
7360;DHT22;3720;48.274;7.796;2024-03-07T01:28:59;7.50;99.90
7360;DHT22;3720;48.274;7.796;2024-03-07T01:31:33;7.60;99.90
7360;DHT22;3720;48.274;7.796;2024-03-07T01:34:04;7.60;99.90
7360;DHT22;3720;48.274;7.796;2024-03-07T01:36:36;7.60;99.90
7360;DHT22;3720;48.274;7.796;2024-03-07T01:39:08;7.50;99.90
7360;DHT22;3720;48.274;7.796;2024-03-07T01:41:41;7.50;99.90
7360;DHT22;3720;48.274;7.796;2024-03-07T01:44:12;7.50;99.90
7360;DHT22;3720;48.274;7.796;2024-03-07T01:46:46;7.50;99.90
7360;DHT22;3720;48.274;7.796;2024-03-07T01:49:21;7.50;99.90
7360;DHT22;3720;48.274;7.796;2024-03-07T01:51:53;7.50;99.90
7360;DHT22;3720;48.274;7.796;2024-03-07T01:54:26;7.60;99.90
7360;DHT22;3720;48.274;7.796;2024-03-07T01:56:58;7.50;99.90
7360;DHT22;3720;48.274;7.796;2024-03-07T01:59:30;7.50;99.90
7360;DHT22;3720;48.274;7.796;2024-03-07T02:02:05;7.50;99.90
7360;DHT22;3720;48.274;7.796;2024-03-07T02:04:37;7.50;99.90
7360;DHT22;3720;48.274;7.796;2024-03-07T02:07:09;7.50;99.90
7360;DHT22;3720;48.274;7.796;2024-03-07T02:09:41;7.50;99.90
7360;DHT22;3720;48.274;7.796;2024-03-07T02:12:13;7.50;99.90
7360;DHT22;3720;48.274;7.796;2024-03-07T02:14:45;7.50;99.90
7360;DHT22;3720;48.274;7.796;2024-03-07T02:17:19;7.50;99.90
7360;DHT22;3720;48.274;7.796;2024-03-07T02:19:51;7.50;99.90
7360;DHT22;3720;48.274;7.796;2024-03-07T02:22:24;7.50;99.90
7360;DHT22;3720;48.274;7.796;2024-03-07T02:24:57;7.50;99.90
7360;DHT22;3720;48.274;7.796;2024-03-07T02:27:28;7.50;99.90
7360;DHT22;3720;48.274;7.796;2024-03-07T02:30:01;7.50;99.90
7360;DHT22;3720;48.274;7.796;2024-03-07T02:32:38;7.50;99.90
7360;DHT22;3720;48.274;7.796;2024-03-07T02:35:11;7.60;99.90
7360;DHT22;3720;48.274;7.796;2024-03-07T02:37:46;7.60;99.90
7360;DHT22;3720;48.274;7.796;2024-03-07T02:40:18;7.60;99.90
7360;DHT22;3720;48.274;7.796;2024-03-07T02:42:50;7.50;99.90
7360;DHT22;3720;48.274;7.796;2024-03-07T02:45:22;7.60;99.90
7360;DHT22;3720;48.274;7.796;2024-03-07T02:47:54;7.50;99.90
7360;DHT22;3720;48.274;7.796;2024-03-07T02:50:26;7.60;99.90
7360;DHT22;3720;48.274;7.796;2024-03-07T02:52:59;7.60;99.90
7360;DHT22;3720;48.274;7.796;2024-03-07T02:55:31;7.60;99.90
7360;DHT22;3720;48.274;7.796;2024-03-07T02:58:03;7.50;99.90
7360;DHT22;3720;48.274;7.796;2024-03-07T03:00:35;7.50;99.90
7360;DHT22;3720;48.274;7.796;2024-03-07T03:03:07;7.50;99.90
7360;DHT22;3720;48.274;7.796;2024-03-07T03:05:39;7.50;99.90
7360;DHT22;3720;48.274;7.796;2024-03-07T03:08:12;7.50;99.90
7360;DHT22;3720;48.274;7.796;2024-03-07T03:10:44;7.50;99.90
7360;DHT22;3720;48.274;7.796;2024-03-07T03:13:16;7.50;99.90
7360;DHT22;3720;48.274;7.796;2024-03-07T03:15:48;7.50;99.90
7360;DHT22;3720;48.274;7.796;2024-03-07T03:18:20;7.50;99.90
7360;DHT22;3720;48.274;7.796;2024-03-07T03:20:51;7.40;99.90
7360;DHT22;3720;48.274;7.796;2024-03-07T03:23:25;7.40;99.90
7360;DHT22;3720;48.274;7.796;2024-03-07T03:25:57;7.40;99.90
7360;DHT22;3720;48.274;7.796;2024-03-07T03:28:30;7.40;99.90
7360;DHT22;3720;48.274;7.796;2024-03-07T03:31:02;7.40;99.90
7360;DHT22;3720;48.274;7.796;2024-03-07T03:33:34;7.50;99.90
7360;DHT22;3720;48.274;7.796;2024-03-07T03:36:07;7.40;99.90
7360;DHT22;3720;48.274;7.796;2024-03-07T03:38:40;7.40;99.90
7360;DHT22;3720;48.274;7.796;2024-03-07T03:41:15;7.40;99.90
7360;DHT22;3720;48.274;7.796;2024-03-07T03:43:47;7.40;99.90
7360;DHT22;3720;48.274;7.796;2024-03-07T03:46:19;7.40;99.90
7360;DHT22;3720;48.274;7.796;2024-03-07T03:48:51;7.40;99.90
7360;DHT22;3720;48.274;7.796;2024-03-07T03:51:22;7.40;99.90
7360;DHT22;3720;48.274;7.796;2024-03-07T03:53:57;7.30;99.90
7360;DHT22;3720;48.274;7.796;2024-03-07T03:56:28;7.30;99.90
7360;DHT22;3720;48.274;7.796;2024-03-07T03:59:02;7.30;99.90
7360;DHT22;3720;48.274;7.796;2024-03-07T04:01:34;7.20;99.90
7360;DHT22;3720;48.274;7.796;2024-03-07T04:04:06;7.20;99.90
7360;DHT22;3720;48.274;7.796;2024-03-07T04:06:38;7.30;99.90
7360;DHT22;3720;48.274;7.796;2024-03-07T04:09:12;7.20;99.90
7360;DHT22;3720;48.274;7.796;2024-03-07T04:11:46;7.30;99.90
7360;DHT22;3720;48.274;7.796;2024-03-07T04:14:17;7.20;99.90
7360;DHT22;3720;48.274;7.796;2024-03-07T04:16:50;7.20;99.90
7360;DHT22;3720;48.274;7.796;2024-03-07T04:19:22;7.20;99.90
7360;DHT22;3720;48.274;7.796;2024-03-07T04:21:54;7.20;99.90
7360;DHT22;3720;48.274;7.796;2024-03-07T04:24:27;7.10;99.90
7360;DHT22;3720;48.274;7.796;2024-03-07T04:27:00;7.10;99.90
7360;DHT22;3720;48.274;7.796;2024-03-07T04:29:32;7.20;99.90
7360;DHT22;3720;48.274;7.796;2024-03-07T04:32:05;7.20;99.90
7360;DHT22;3720;48.274;7.796;2024-03-07T04:34:37;7.20;99.90
7360;DHT22;3720;48.274;7.796;2024-03-07T04:37:10;7.10;99.90
7360;DHT22;3720;48.274;7.796;2024-03-07T04:39:43;7.20;99.90
7360;DHT22;3720;48.274;7.796;2024-03-07T04:42:16;7.20;99.90
7360;DHT22;3720;48.274;7.796;2024-03-07T04:44:48;7.10;99.90
7360;DHT22;3720;48.274;7.796;2024-03-07T04:47:19;7.10;99.90
7360;DHT22;3720;48.274;7.796;2024-03-07T04:49:51;7.10;99.90
7360;DHT22;3720;48.274;7.796;2024-03-07T04:52:23;7.00;99.90
7360;DHT22;3720;48.274;7.796;2024-03-07T04:54:56;7.00;99.90
7360;DHT22;3720;48.274;7.796;2024-03-07T04:57:28;7.10;99.90
7360;DHT22;3720;48.274;7.796;2024-03-07T05:00:00;7.00;99.90
7360;DHT22;3720;48.274;7.796;2024-03-07T05:02:32;7.00;99.90
7360;DHT22;3720;48.274;7.796;2024-03-07T05:05:04;7.00;99.90
7360;DHT22;3720;48.274;7.796;2024-03-07T05:07:36;7.00;99.90
7360;DHT22;3720;48.274;7.796;2024-03-07T05:10:10;6.90;99.90
7360;DHT22;3720;48.274;7.796;2024-03-07T05:12:42;6.90;99.90
7360;DHT22;3720;48.274;7.796;2024-03-07T05:15:14;6.90;99.90
7360;DHT22;3720;48.274;7.796;2024-03-07T05:17:45;6.90;99.90
7360;DHT22;3720;48.274;7.796;2024-03-07T05:20:17;6.80;99.90
7360;DHT22;3720;48.274;7.796;2024-03-07T05:22:49;6.80;99.90
7360;DHT22;3720;48.274;7.796;2024-03-07T05:25:23;6.80;99.90
7360;DHT22;3720;48.274;7.796;2024-03-07T05:27:54;6.80;99.90
7360;DHT22;3720;48.274;7.796;2024-03-07T05:30:26;6.80;99.90
7360;DHT22;3720;48.274;7.796;2024-03-07T05:32:59;6.70;99.90
7360;DHT22;3720;48.274;7.796;2024-03-07T05:35:32;6.80;99.90
7360;DHT22;3720;48.274;7.796;2024-03-07T05:38:04;6.80;99.90
7360;DHT22;3720;48.274;7.796;2024-03-07T05:40:37;6.70;99.90
7360;DHT22;3720;48.274;7.796;2024-03-07T05:43:09;6.70;99.90
7360;DHT22;3720;48.274;7.796;2024-03-07T05:45:41;6.70;99.90
7360;DHT22;3720;48.274;7.796;2024-03-07T05:48:14;6.60;99.90
7360;DHT22;3720;48.274;7.796;2024-03-07T05:50:47;6.60;99.90
7360;DHT22;3720;48.274;7.796;2024-03-07T05:53:19;6.60;99.90
7360;DHT22;3720;48.274;7.796;2024-03-07T05:55:52;6.50;99.90
7360;DHT22;3720;48.274;7.796;2024-03-07T05:58:24;6.50;99.90
7360;DHT22;3720;48.274;7.796;2024-03-07T06:00:57;6.40;99.90
7360;DHT22;3720;48.274;7.796;2024-03-07T06:03:29;6.40;99.90
7360;DHT22;3720;48.274;7.796;2024-03-07T06:06:00;6.40;99.90
7360;DHT22;3720;48.274;7.796;2024-03-07T06:08:32;6.40;99.90
7360;DHT22;3720;48.274;7.796;2024-03-07T06:11:05;6.40;99.90
7360;DHT22;3720;48.274;7.796;2024-03-07T06:13:37;6.50;99.90
7360;DHT22;3720;48.274;7.796;2024-03-07T06:16:09;6.50;99.90
7360;DHT22;3720;48.274;7.796;2024-03-07T06:18:42;6.50;99.90
7360;DHT22;3720;48.274;7.796;2024-03-07T06:21:13;6.60;99.90
7360;DHT22;3720;48.274;7.796;2024-03-07T06:23:45;6.50;99.90
7360;DHT22;3720;48.274;7.796;2024-03-07T06:26:19;6.50;99.90
7360;DHT22;3720;48.274;7.796;2024-03-07T06:29:07;6.50;99.90
7360;DHT22;3720;48.274;7.796;2024-03-07T06:31:42;6.60;99.90
7360;DHT22;3720;48.274;7.796;2024-03-07T06:34:14;6.50;99.90
7360;DHT22;3720;48.274;7.796;2024-03-07T06:36:46;6.60;99.90
7360;DHT22;3720;48.274;7.796;2024-03-07T06:39:18;6.50;99.90
7360;DHT22;3720;48.274;7.796;2024-03-07T06:41:53;6.60;99.90
7360;DHT22;3720;48.274;7.796;2024-03-07T06:44:26;6.60;99.90
7360;DHT22;3720;48.274;7.796;2024-03-07T06:46:58;6.70;99.90
7360;DHT22;3720;48.274;7.796;2024-03-07T06:49:29;6.60;99.90
7360;DHT22;3720;48.274;7.796;2024-03-07T06:52:02;6.70;99.90
7360;DHT22;3720;48.274;7.796;2024-03-07T06:54:34;6.70;99.90
7360;DHT22;3720;48.274;7.796;2024-03-07T06:57:07;6.70;99.90
7360;DHT22;3720;48.274;7.796;2024-03-07T06:59:39;6.70;99.90
7360;DHT22;3720;48.274;7.796;2024-03-07T07:02:11;6.70;99.90
7360;DHT22;3720;48.274;7.796;2024-03-07T07:04:44;6.70;99.90
7360;DHT22;3720;48.274;7.796;2024-03-07T07:07:18;6.70;99.90
7360;DHT22;3720;48.274;7.796;2024-03-07T07:09:50;6.70;99.90
7360;DHT22;3720;48.274;7.796;2024-03-07T07:12:25;6.80;99.90
7360;DHT22;3720;48.274;7.796;2024-03-07T07:14:57;6.80;99.90
7360;DHT22;3720;48.274;7.796;2024-03-07T07:17:29;6.80;99.90
7360;DHT22;3720;48.274;7.796;2024-03-07T07:20:01;6.80;99.90
7360;DHT22;3720;48.274;7.796;2024-03-07T07:22:40;6.80;99.90
7360;DHT22;3720;48.274;7.796;2024-03-07T07:25:12;6.70;99.90
7360;DHT22;3720;48.274;7.796;2024-03-07T07:27:47;6.70;99.90
7360;DHT22;3720;48.274;7.796;2024-03-07T07:30:20;6.80;99.90
7360;DHT22;3720;48.274;7.796;2024-03-07T07:32:53;6.80;99.90
7360;DHT22;3720;48.274;7.796;2024-03-07T07:35:25;6.80;99.90
7360;DHT22;3720;48.274;7.796;2024-03-07T07:37:57;6.80;99.90
7360;DHT22;3720;48.274;7.796;2024-03-07T07:40:30;6.80;99.90
7360;DHT22;3720;48.274;7.796;2024-03-07T07:43:05;6.90;99.90
7360;DHT22;3720;48.274;7.796;2024-03-07T07:45:38;6.90;99.90
7360;DHT22;3720;48.274;7.796;2024-03-07T07:48:09;6.90;99.90
7360;DHT22;3720;48.274;7.796;2024-03-07T07:50:42;7.00;99.90
7360;DHT22;3720;48.274;7.796;2024-03-07T07:53:14;7.00;99.90
7360;DHT22;3720;48.274;7.796;2024-03-07T07:55:45;7.00;99.90
7360;DHT22;3720;48.274;7.796;2024-03-07T07:58:20;7.10;99.90
7360;DHT22;3720;48.274;7.796;2024-03-07T08:00:53;7.10;99.90
7360;DHT22;3720;48.274;7.796;2024-03-07T08:03:25;7.20;99.90
7360;DHT22;3720;48.274;7.796;2024-03-07T08:05:57;7.10;99.90
7360;DHT22;3720;48.274;7.796;2024-03-07T08:08:29;7.20;99.90
7360;DHT22;3720;48.274;7.796;2024-03-07T08:11:00;7.20;99.90
7360;DHT22;3720;48.274;7.796;2024-03-07T08:13:34;7.30;99.90
7360;DHT22;3720;48.274;7.796;2024-03-07T08:16:06;7.40;99.90
7360;DHT22;3720;48.274;7.796;2024-03-07T08:18:39;7.60;99.90
7360;DHT22;3720;48.274;7.796;2024-03-07T08:21:11;7.60;99.90
7360;DHT22;3720;48.274;7.796;2024-03-07T08:23:43;7.70;99.90
7360;DHT22;3720;48.274;7.796;2024-03-07T08:26:16;7.70;99.90
7360;DHT22;3720;48.274;7.796;2024-03-07T08:28:50;7.80;99.90
7360;DHT22;3720;48.274;7.796;2024-03-07T08:31:21;7.80;99.90
7360;DHT22;3720;48.274;7.796;2024-03-07T08:33:53;7.90;99.90
7360;DHT22;3720;48.274;7.796;2024-03-07T08:36:25;7.90;99.90
7360;DHT22;3720;48.274;7.796;2024-03-07T08:38:57;8.00;99.90
7360;DHT22;3720;48.274;7.796;2024-03-07T08:41:29;8.00;99.90
7360;DHT22;3720;48.274;7.796;2024-03-07T08:44:03;8.00;99.90
7360;DHT22;3720;48.274;7.796;2024-03-07T08:46:35;8.00;99.90
7360;DHT22;3720;48.274;7.796;2024-03-07T08:49:07;8.00;99.90
7360;DHT22;3720;48.274;7.796;2024-03-07T08:51:39;7.90;99.90
7360;DHT22;3720;48.274;7.796;2024-03-07T08:54:11;7.90;99.90
7360;DHT22;3720;48.274;7.796;2024-03-07T08:56:43;7.90;99.90
7360;DHT22;3720;48.274;7.796;2024-03-07T08:59:17;7.90;99.90
7360;DHT22;3720;48.274;7.796;2024-03-07T09:01:49;7.90;99.90
7360;DHT22;3720;48.274;7.796;2024-03-07T09:04:20;8.00;99.90
7360;DHT22;3720;48.274;7.796;2024-03-07T09:06:53;8.00;99.90
7360;DHT22;3720;48.274;7.796;2024-03-07T09:09:25;8.20;99.90
7360;DHT22;3720;48.274;7.796;2024-03-07T09:11:57;8.30;99.90
7360;DHT22;3720;48.274;7.796;2024-03-07T09:14:30;8.40;99.90
7360;DHT22;3720;48.274;7.796;2024-03-07T09:17:03;8.60;99.90
7360;DHT22;3720;48.274;7.796;2024-03-07T09:19:35;8.60;99.90
7360;DHT22;3720;48.274;7.796;2024-03-07T09:22:07;8.70;99.90
7360;DHT22;3720;48.274;7.796;2024-03-07T09:24:39;8.90;99.90
7360;DHT22;3720;48.274;7.796;2024-03-07T09:27:11;8.90;99.90
7360;DHT22;3720;48.274;7.796;2024-03-07T09:29:45;9.00;99.90
7360;DHT22;3720;48.274;7.796;2024-03-07T09:32:18;9.10;99.90
7360;DHT22;3720;48.274;7.796;2024-03-07T09:34:54;9.30;99.90
7360;DHT22;3720;48.274;7.796;2024-03-07T09:37:26;9.30;99.90
7360;DHT22;3720;48.274;7.796;2024-03-07T09:39:58;9.50;99.90
7360;DHT22;3720;48.274;7.796;2024-03-07T09:42:30;9.60;99.90
7360;DHT22;3720;48.274;7.796;2024-03-07T09:45:05;9.70;99.90
7360;DHT22;3720;48.274;7.796;2024-03-07T09:47:37;9.80;99.90
7360;DHT22;3720;48.274;7.796;2024-03-07T09:50:09;9.90;99.90
7360;DHT22;3720;48.274;7.796;2024-03-07T09:52:43;10.00;99.90
7360;DHT22;3720;48.274;7.796;2024-03-07T09:55:17;10.20;99.90
7360;DHT22;3720;48.274;7.796;2024-03-07T09:57:50;10.40;99.90
7360;DHT22;3720;48.274;7.796;2024-03-07T10:00:25;10.60;99.90
7360;DHT22;3720;48.274;7.796;2024-03-07T10:03:03;10.90;99.90
7360;DHT22;3720;48.274;7.796;2024-03-07T10:05:37;11.10;99.90
7360;DHT22;3720;48.274;7.796;2024-03-07T10:08:09;11.30;99.90
7360;DHT22;3720;48.274;7.796;2024-03-07T10:10:45;11.40;99.90
7360;DHT22;3720;48.274;7.796;2024-03-07T10:13:18;11.60;99.90
7360;DHT22;3720;48.274;7.796;2024-03-07T10:15:51;11.70;99.90
7360;DHT22;3720;48.274;7.796;2024-03-07T10:18:24;11.80;99.90
7360;DHT22;3720;48.274;7.796;2024-03-07T10:20:56;11.80;99.90
7360;DHT22;3720;48.274;7.796;2024-03-07T10:23:28;11.90;99.90
7360;DHT22;3720;48.274;7.796;2024-03-07T10:26:00;12.00;99.90
7360;DHT22;3720;48.274;7.796;2024-03-07T10:28:33;12.20;99.90
7360;DHT22;3720;48.274;7.796;2024-03-07T10:31:07;12.50;99.90
7360;DHT22;3720;48.274;7.796;2024-03-07T10:33:42;12.60;99.90
7360;DHT22;3720;48.274;7.796;2024-03-07T10:36:14;12.80;99.90
7360;DHT22;3720;48.274;7.796;2024-03-07T10:38:46;13.00;99.90
7360;DHT22;3720;48.274;7.796;2024-03-07T10:41:18;13.10;99.90
7360;DHT22;3720;48.274;7.796;2024-03-07T10:43:56;13.30;99.90
7360;DHT22;3720;48.274;7.796;2024-03-07T10:46:30;13.50;99.90
7360;DHT22;3720;48.274;7.796;2024-03-07T10:49:05;13.60;99.90
7360;DHT22;3720;48.274;7.796;2024-03-07T10:51:40;13.70;99.90
7360;DHT22;3720;48.274;7.796;2024-03-07T10:54:22;13.90;99.90
7360;DHT22;3720;48.274;7.796;2024-03-07T10:57:17;14.10;99.90
7360;DHT22;3720;48.274;7.796;2024-03-07T10:59:56;14.30;99.90
7360;DHT22;3720;48.274;7.796;2024-03-07T11:02:35;14.30;99.90
7360;DHT22;3720;48.274;7.796;2024-03-07T11:05:08;14.40;99.90
7360;DHT22;3720;48.274;7.796;2024-03-07T11:07:43;14.70;99.90
7360;DHT22;3720;48.274;7.796;2024-03-07T11:10:16;14.70;99.90
7360;DHT22;3720;48.274;7.796;2024-03-07T11:12:50;14.90;99.90
7360;DHT22;3720;48.274;7.796;2024-03-07T11:15:23;15.10;99.90
7360;DHT22;3720;48.274;7.796;2024-03-07T11:17:59;15.30;99.90
7360;DHT22;3720;48.274;7.796;2024-03-07T11:20:35;15.50;99.90
7360;DHT22;3720;48.274;7.796;2024-03-07T11:23:25;15.80;99.90
7360;DHT22;3720;48.274;7.796;2024-03-07T11:26:03;16.20;99.90
7360;DHT22;3720;48.274;7.796;2024-03-07T11:28:39;16.40;99.90
7360;DHT22;3720;48.274;7.796;2024-03-07T11:31:13;16.40;99.90
7360;DHT22;3720;48.274;7.796;2024-03-07T11:34:13;16.60;99.90
7360;DHT22;3720;48.274;7.796;2024-03-07T11:36:46;16.40;99.90
7360;DHT22;3720;48.274;7.796;2024-03-07T11:39:41;15.90;99.90
7360;DHT22;3720;48.274;7.796;2024-03-07T11:42:23;15.70;99.90
7360;DHT22;3720;48.274;7.796;2024-03-07T11:44:58;15.70;99.90
7360;DHT22;3720;48.274;7.796;2024-03-07T11:47:35;16.00;99.90
7360;DHT22;3720;48.274;7.796;2024-03-07T11:50:10;16.10;99.90
7360;DHT22;3720;48.274;7.796;2024-03-07T11:52:42;16.30;99.90
7360;DHT22;3720;48.274;7.796;2024-03-07T11:55:14;16.50;99.90
7360;DHT22;3720;48.274;7.796;2024-03-07T11:57:47;16.70;99.90
7360;DHT22;3720;48.274;7.796;2024-03-07T12:00:19;16.90;99.90
7360;DHT22;3720;48.274;7.796;2024-03-07T12:02:54;17.10;99.90
7360;DHT22;3720;48.274;7.796;2024-03-07T12:05:32;17.30;99.90
7360;DHT22;3720;48.274;7.796;2024-03-07T12:08:04;17.50;99.90
7360;DHT22;3720;48.274;7.796;2024-03-07T12:10:36;17.40;99.90
7360;DHT22;3720;48.274;7.796;2024-03-07T12:13:10;17.00;99.90
7360;DHT22;3720;48.274;7.796;2024-03-07T12:15:43;16.60;99.90
7360;DHT22;3720;48.274;7.796;2024-03-07T12:18:15;16.40;99.90
7360;DHT22;3720;48.274;7.796;2024-03-07T12:20:49;16.40;99.90
7360;DHT22;3720;48.274;7.796;2024-03-07T12:23:25;16.70;99.90
7360;DHT22;3720;48.274;7.796;2024-03-07T12:26:00;16.90;99.90
7360;DHT22;3720;48.274;7.796;2024-03-07T12:28:33;16.90;99.90
7360;DHT22;3720;48.274;7.796;2024-03-07T12:31:05;17.10;99.90
7360;DHT22;3720;48.274;7.796;2024-03-07T12:33:46;17.20;99.90
7360;DHT22;3720;48.274;7.796;2024-03-07T12:36:23;17.10;99.90
7360;DHT22;3720;48.274;7.796;2024-03-07T12:39:04;16.90;99.90
7360;DHT22;3720;48.274;7.796;2024-03-07T12:41:56;16.50;99.90
7360;DHT22;3720;48.274;7.796;2024-03-07T12:44:28;16.20;99.90
7360;DHT22;3720;48.274;7.796;2024-03-07T12:46:59;16.00;99.90
7360;DHT22;3720;48.274;7.796;2024-03-07T12:49:31;15.90;99.90
7360;DHT22;3720;48.274;7.796;2024-03-07T12:52:06;15.90;99.90
7360;DHT22;3720;48.274;7.796;2024-03-07T12:54:39;16.10;99.90
7360;DHT22;3720;48.274;7.796;2024-03-07T12:57:12;16.30;99.90
7360;DHT22;3720;48.274;7.796;2024-03-07T12:59:44;16.30;99.90
7360;DHT22;3720;48.274;7.796;2024-03-07T13:02:16;16.20;99.90
7360;DHT22;3720;48.274;7.796;2024-03-07T13:04:48;16.10;99.90
7360;DHT22;3720;48.274;7.796;2024-03-07T13:07:22;16.00;99.90
7360;DHT22;3720;48.274;7.796;2024-03-07T13:09:55;15.80;99.90
7360;DHT22;3720;48.274;7.796;2024-03-07T13:12:27;15.60;99.90
7360;DHT22;3720;48.274;7.796;2024-03-07T13:15:01;15.40;99.90
7360;DHT22;3720;48.274;7.796;2024-03-07T13:17:37;15.20;99.90
7360;DHT22;3720;48.274;7.796;2024-03-07T13:20:10;15.00;99.90
7360;DHT22;3720;48.274;7.796;2024-03-07T13:22:46;14.90;99.90
7360;DHT22;3720;48.274;7.796;2024-03-07T13:25:20;14.70;99.90
7360;DHT22;3720;48.274;7.796;2024-03-07T13:27:57;14.60;99.90
7360;DHT22;3720;48.274;7.796;2024-03-07T13:30:30;14.70;99.90
7360;DHT22;3720;48.274;7.796;2024-03-07T13:33:03;14.80;99.90
7360;DHT22;3720;48.274;7.796;2024-03-07T13:35:38;15.20;99.90
7360;DHT22;3720;48.274;7.796;2024-03-07T13:38:11;15.40;99.90
7360;DHT22;3720;48.274;7.796;2024-03-07T13:40:44;15.60;99.90
7360;DHT22;3720;48.274;7.796;2024-03-07T13:43:15;15.90;99.90
7360;DHT22;3720;48.274;7.796;2024-03-07T13:45:48;16.30;99.90
7360;DHT22;3720;48.274;7.796;2024-03-07T13:48:20;16.50;99.90
7360;DHT22;3720;48.274;7.796;2024-03-07T13:50:52;16.60;99.90
7360;DHT22;3720;48.274;7.796;2024-03-07T13:53:26;16.60;99.90
7360;DHT22;3720;48.274;7.796;2024-03-07T13:56:32;16.80;99.90
7360;DHT22;3720;48.274;7.796;2024-03-07T13:59:31;17.00;99.90
7360;DHT22;3720;48.274;7.796;2024-03-07T14:02:25;17.20;99.90
7360;DHT22;3720;48.274;7.796;2024-03-07T14:05:34;17.40;99.90
7360;DHT22;3720;48.274;7.796;2024-03-07T14:08:32;17.10;99.90
7360;DHT22;3720;48.274;7.796;2024-03-07T14:11:33;16.70;99.90
7360;DHT22;3720;48.274;7.796;2024-03-07T14:14:26;16.30;99.90
7360;DHT22;3720;48.274;7.796;2024-03-07T14:17:30;16.00;99.90
7360;DHT22;3720;48.274;7.796;2024-03-07T14:20:40;15.60;99.90
7360;DHT22;3720;48.274;7.796;2024-03-07T14:23:37;15.30;99.90
7360;DHT22;3720;48.274;7.796;2024-03-07T14:26:45;15.00;99.90
7360;DHT22;3720;48.274;7.796;2024-03-07T14:29:32;14.80;99.90
7360;DHT22;3720;48.274;7.796;2024-03-07T14:32:12;14.70;99.90
7360;DHT22;3720;48.274;7.796;2024-03-07T14:34:54;14.60;99.90
7360;DHT22;3720;48.274;7.796;2024-03-07T14:37:31;14.40;99.90
7360;DHT22;3720;48.274;7.796;2024-03-07T14:40:09;14.40;99.90
7360;DHT22;3720;48.274;7.796;2024-03-07T14:42:43;14.50;99.90
7360;DHT22;3720;48.274;7.796;2024-03-07T14:45:28;14.50;99.90
7360;DHT22;3720;48.274;7.796;2024-03-07T14:48:01;14.40;99.90
7360;DHT22;3720;48.274;7.796;2024-03-07T14:50:35;14.20;99.90
7360;DHT22;3720;48.274;7.796;2024-03-07T14:53:08;14.10;99.90
7360;DHT22;3720;48.274;7.796;2024-03-07T14:55:43;14.00;99.90
7360;DHT22;3720;48.274;7.796;2024-03-07T14:58:15;13.80;99.90
7360;DHT22;3720;48.274;7.796;2024-03-07T15:00:48;13.60;99.90
7360;DHT22;3720;48.274;7.796;2024-03-07T15:03:21;13.50;99.90
7360;DHT22;3720;48.274;7.796;2024-03-07T15:05:53;13.30;99.90
7360;DHT22;3720;48.274;7.796;2024-03-07T15:08:26;13.30;99.90
7360;DHT22;3720;48.274;7.796;2024-03-07T15:11:07;13.30;99.90
7360;DHT22;3720;48.274;7.796;2024-03-07T15:13:44;13.30;99.90
7360;DHT22;3720;48.274;7.796;2024-03-07T15:16:16;13.30;99.90
7360;DHT22;3720;48.274;7.796;2024-03-07T15:18:48;13.30;99.90
7360;DHT22;3720;48.274;7.796;2024-03-07T15:21:20;13.20;99.90
7360;DHT22;3720;48.274;7.796;2024-03-07T15:23:52;13.20;99.90
7360;DHT22;3720;48.274;7.796;2024-03-07T15:26:26;13.20;99.90
7360;DHT22;3720;48.274;7.796;2024-03-07T15:28:58;13.10;99.90
7360;DHT22;3720;48.274;7.796;2024-03-07T15:31:30;13.10;99.90
7360;DHT22;3720;48.274;7.796;2024-03-07T15:34:02;13.00;99.90
7360;DHT22;3720;48.274;7.796;2024-03-07T15:36:34;12.70;99.90
7360;DHT22;3720;48.274;7.796;2024-03-07T15:39:06;12.70;99.90
7360;DHT22;3720;48.274;7.796;2024-03-07T15:41:51;12.60;99.90
7360;DHT22;3720;48.274;7.796;2024-03-07T15:44:24;12.50;99.90
7360;DHT22;3720;48.274;7.796;2024-03-07T15:46:56;12.50;99.90
7360;DHT22;3720;48.274;7.796;2024-03-07T15:49:27;12.40;99.90
7360;DHT22;3720;48.274;7.796;2024-03-07T15:52:00;12.40;99.90
7360;DHT22;3720;48.274;7.796;2024-03-07T15:54:32;12.30;99.90
7360;DHT22;3720;48.274;7.796;2024-03-07T15:57:06;12.30;99.90
7360;DHT22;3720;48.274;7.796;2024-03-07T15:59:42;12.30;99.90
7360;DHT22;3720;48.274;7.796;2024-03-07T16:02:14;12.40;99.90
7360;DHT22;3720;48.274;7.796;2024-03-07T16:04:46;12.30;99.90
7360;DHT22;3720;48.274;7.796;2024-03-07T16:07:18;12.40;99.90
7360;DHT22;3720;48.274;7.796;2024-03-07T16:09:50;12.30;99.90
7360;DHT22;3720;48.274;7.796;2024-03-07T16:12:25;12.40;99.90
7360;DHT22;3720;48.274;7.796;2024-03-07T16:14:57;12.30;99.90
7360;DHT22;3720;48.274;7.796;2024-03-07T16:17:29;12.30;99.90
7360;DHT22;3720;48.274;7.796;2024-03-07T16:20:02;12.20;99.90
7360;DHT22;3720;48.274;7.796;2024-03-07T16:22:36;12.20;99.90
7360;DHT22;3720;48.274;7.796;2024-03-07T16:25:10;12.10;99.90
7360;DHT22;3720;48.274;7.796;2024-03-07T16:27:50;12.00;99.90
7360;DHT22;3720;48.274;7.796;2024-03-07T16:30:25;12.00;99.90
7360;DHT22;3720;48.274;7.796;2024-03-07T16:33:00;11.90;99.90
7360;DHT22;3720;48.274;7.796;2024-03-07T16:35:33;11.80;99.90
7360;DHT22;3720;48.274;7.796;2024-03-07T16:38:05;11.80;99.90
7360;DHT22;3720;48.274;7.796;2024-03-07T16:40:39;11.80;99.90
7360;DHT22;3720;48.274;7.796;2024-03-07T16:43:14;11.60;99.90
7360;DHT22;3720;48.274;7.796;2024-03-07T16:45:46;11.60;99.90
7360;DHT22;3720;48.274;7.796;2024-03-07T16:48:18;11.50;99.90
7360;DHT22;3720;48.274;7.796;2024-03-07T16:50:51;11.30;99.90
7360;DHT22;3720;48.274;7.796;2024-03-07T16:53:25;11.30;99.90
7360;DHT22;3720;48.274;7.796;2024-03-07T16:55:56;11.10;99.90